createdAt,value
2023-04-30T00:00:08.634Z,12.35
2023-04-30T00:02:37.527Z,16.75
2023-04-30T00:05:05.036Z,12.20
2023-04-30T00:07:32.330Z,12.48
2023-04-30T00:09:59.309Z,13.32
2023-04-30T00:12:26.402Z,13.35
2023-04-30T00:14:53.423Z,11.95
2023-04-30T00:17:20.891Z,12.25
2023-04-30T00:19:47.828Z,11.93
2023-04-30T00:22:14.772Z,11.95
2023-04-30T00:24:41.711Z,11.48
2023-04-30T00:27:08.740Z,12.25
2023-04-30T00:29:35.790Z,12.07
2023-04-30T00:32:02.988Z,11.43
2023-04-30T00:34:30.204Z,13.15
2023-04-30T00:36:57.195Z,12.48
2023-04-30T00:39:24.240Z,11.98
2023-04-30T00:41:51.236Z,12.88
2023-04-30T00:44:18.161Z,11.85
2023-04-30T00:46:45.154Z,11.13
2023-04-30T00:49:12.137Z,14.05
2023-04-30T00:51:42.206Z,12.68
2023-04-30T00:54:09.420Z,11.30
2023-04-30T00:56:36.641Z,12.68
2023-04-30T00:59:03.836Z,11.57
2023-04-30T01:01:31.847Z,10.23
2023-04-30T01:03:58.986Z,10.77
2023-04-30T01:06:27.121Z,17.75
2023-04-30T01:08:54.501Z,12.55
2023-04-30T01:11:50.062Z,12.43
2023-04-30T01:14:37.299Z,13.25
2023-04-30T01:17:10.021Z,11.65
2023-04-30T01:19:44.297Z,13.85
2023-04-30T01:22:30.308Z,13.25
2023-04-30T01:25:15.853Z,13.15
2023-04-30T01:27:58.168Z,14.65
2023-04-30T01:30:26.097Z,12.93
2023-04-30T01:32:53.222Z,12.50
2023-04-30T01:35:20.559Z,15.65
2023-04-30T01:38:29.972Z,16.88
2023-04-30T01:41:19.662Z,13.70
2023-04-30T01:44:03.584Z,11.40
2023-04-30T01:46:31.966Z,13.38
2023-04-30T01:49:02.260Z,13.00
2023-04-30T01:51:56.095Z,15.35
2023-04-30T01:54:56.178Z,12.93
2023-04-30T01:57:33.167Z,13.13
2023-04-30T02:00:00.963Z,13.25
2023-04-30T02:02:28.711Z,15.73
2023-04-30T02:04:55.722Z,15.75
2023-04-30T02:07:45.348Z,17.15
2023-04-30T02:10:13.129Z,11.63
2023-04-30T02:12:40.839Z,15.10
2023-04-30T02:15:11.344Z,14.52
2023-04-30T02:20:09.120Z,14.20
2023-04-30T02:22:36.696Z,11.57
2023-04-30T02:25:04.331Z,11.43
2023-04-30T02:27:32.873Z,11.70
2023-04-30T02:30:00.761Z,11.88
2023-04-30T02:32:27.822Z,14.18
2023-04-30T02:34:54.916Z,14.85
2023-04-30T02:37:22.040Z,12.68
2023-04-30T02:39:49.535Z,14.15
2023-04-30T02:42:16.594Z,13.82
2023-04-30T02:44:43.786Z,14.57
2023-04-30T02:47:11.066Z,12.68
2023-04-30T02:49:38.873Z,13.73
2023-04-30T02:52:07.254Z,15.38
2023-04-30T02:54:34.300Z,12.43
2023-04-30T02:57:01.506Z,14.35
2023-04-30T02:59:28.621Z,12.60
2023-04-30T03:01:55.802Z,13.60
2023-04-30T03:04:22.928Z,13.07
2023-04-30T03:06:49.875Z,12.90
2023-04-30T03:09:16.975Z,13.63
2023-04-30T03:11:43.949Z,13.85
2023-04-30T03:14:10.867Z,15.52
2023-04-30T03:16:38.394Z,14.40
2023-04-30T03:19:05.459Z,12.57
2023-04-30T03:21:32.775Z,15.15
2023-04-30T03:23:59.747Z,15.32
2023-04-30T03:26:27.399Z,15.35
2023-04-30T03:28:55.872Z,10.45
2023-04-30T03:31:23.788Z,12.35
2023-04-30T03:33:51.190Z,11.45
2023-04-30T03:36:18.190Z,11.93
2023-04-30T03:38:45.290Z,12.02
2023-04-30T03:41:12.337Z,12.38
2023-04-30T03:43:39.461Z,12.13
2023-04-30T03:46:06.598Z,12.38
2023-04-30T03:48:33.672Z,13.63
2023-04-30T03:51:00.729Z,10.52
2023-04-30T03:53:27.852Z,10.38
2023-04-30T03:55:55.204Z,11.30
2023-04-30T03:58:22.723Z,12.52
2023-04-30T04:00:50.083Z,12.77
2023-04-30T04:03:17.595Z,16.25
2023-04-30T04:05:44.698Z,13.13
2023-04-30T04:08:12.029Z,15.80
2023-04-30T04:10:40.302Z,15.93
2023-04-30T04:13:08.764Z,16.90
2023-04-30T04:15:36.261Z,15.77
2023-04-30T04:18:04.027Z,12.52
2023-04-30T04:20:32.494Z,13.20
2023-04-30T04:22:59.679Z,15.70
2023-04-30T04:25:27.467Z,13.52
2023-04-30T04:27:54.621Z,11.70
2023-04-30T04:30:21.592Z,13.60
2023-04-30T04:32:54.166Z,12.98
2023-04-30T04:35:21.433Z,15.43
2023-04-30T04:37:48.572Z,12.90
2023-04-30T04:40:15.715Z,14.32
2023-04-30T04:42:42.734Z,13.05
2023-04-30T04:45:11.256Z,13.25
2023-04-30T04:47:39.323Z,13.85
2023-04-30T04:50:07.078Z,12.25
2023-04-30T04:52:34.029Z,13.88
2023-04-30T04:55:01.104Z,12.88
2023-04-30T04:57:28.181Z,14.88
2023-04-30T04:59:55.583Z,13.70
2023-04-30T05:02:23.712Z,11.10
2023-04-30T05:04:51.890Z,13.57
2023-04-30T05:07:19.533Z,15.43
2023-04-30T05:09:47.393Z,14.05
2023-04-30T05:12:17.537Z,15.50
2023-04-30T05:14:45.122Z,14.75
2023-04-30T05:17:12.159Z,14.27
2023-04-30T05:19:39.187Z,14.25
2023-04-30T05:22:06.269Z,13.23
2023-04-30T05:24:34.244Z,14.38
2023-04-30T05:27:03.039Z,13.45
2023-04-30T05:29:30.023Z,14.48
2023-04-30T05:31:57.062Z,17.38
2023-04-30T05:34:24.182Z,15.63
2023-04-30T05:36:51.082Z,15.20
2023-04-30T05:39:18.044Z,13.85
2023-04-30T05:41:44.968Z,15.13
2023-04-30T05:44:11.888Z,13.63
2023-04-30T05:46:38.955Z,13.13
2023-04-30T05:49:05.927Z,14.57
2023-04-30T05:51:33.095Z,15.48
2023-04-30T05:54:00.484Z,13.40
2023-04-30T05:56:27.671Z,12.80
2023-04-30T05:58:54.598Z,15.63
2023-04-30T06:01:22.331Z,14.98
2023-04-30T06:03:49.340Z,17.25
2023-04-30T06:06:16.457Z,13.68
2023-04-30T06:08:45.458Z,14.20
2023-04-30T06:11:15.777Z,14.35
2023-04-30T06:13:42.943Z,14.20
2023-04-30T06:16:10.065Z,14.48
2023-04-30T06:18:37.073Z,16.42
2023-04-30T06:21:04.192Z,15.00
2023-04-30T06:23:31.562Z,13.98
2023-04-30T06:25:58.509Z,14.25
2023-04-30T06:28:25.611Z,13.90
2023-04-30T06:30:54.342Z,16.88
2023-04-30T06:33:21.846Z,19.88
2023-04-30T06:35:50.920Z,15.15
2023-04-30T06:38:20.710Z,16.42
2023-04-30T06:40:48.036Z,13.85
2023-04-30T06:43:14.935Z,15.15
2023-04-30T06:45:41.906Z,17.63
2023-04-30T06:48:10.129Z,16.20
2023-04-30T06:50:43.929Z,14.75
2023-04-30T06:53:14.752Z,14.57
2023-04-30T06:55:42.746Z,13.82
2023-04-30T06:58:09.946Z,14.48
2023-04-30T07:00:36.936Z,12.93
2023-04-30T07:03:04.893Z,15.95
2023-04-30T07:05:32.278Z,18.08
2023-04-30T07:08:03.950Z,13.48
2023-04-30T07:10:31.686Z,10.13
2023-04-30T07:12:59.373Z,11.57
2023-04-30T07:15:26.564Z,8.35
2023-04-30T07:17:53.677Z,8.23
2023-04-30T07:20:20.823Z,5.28
2023-04-30T07:22:47.762Z,4.93
2023-04-30T07:25:15.169Z,6.15
2023-04-30T07:27:42.303Z,3.63
2023-04-30T07:30:10.861Z,2.92
2023-04-30T07:32:38.671Z,2.85
2023-04-30T07:35:06.304Z,3.00
2023-04-30T07:37:35.421Z,2.80
2023-04-30T07:40:03.674Z,3.70
2023-04-30T07:42:30.652Z,5.00
2023-04-30T07:44:57.567Z,2.60
2023-04-30T07:47:25.607Z,2.97
2023-04-30T07:49:52.921Z,2.70
2023-04-30T07:52:20.353Z,2.72
2023-04-30T07:54:47.334Z,3.20
2023-04-30T07:57:14.337Z,4.05
2023-04-30T07:59:41.490Z,3.10
2023-04-30T08:02:09.563Z,2.53
2023-04-30T08:04:36.620Z,2.92
2023-04-30T08:07:04.694Z,2.65
2023-04-30T08:09:31.788Z,3.13
2023-04-30T08:11:58.947Z,2.50
2023-04-30T08:14:26.050Z,4.85
2023-04-30T08:16:53.184Z,3.38
2023-04-30T08:19:20.157Z,3.13
2023-04-30T08:21:47.392Z,3.05
2023-04-30T08:24:14.332Z,3.03
2023-04-30T08:26:41.412Z,3.50
2023-04-30T08:29:11.069Z,2.67
2023-04-30T08:31:38.223Z,2.92
2023-04-30T08:34:05.122Z,3.40
2023-04-30T08:36:34.637Z,2.38
2023-04-30T08:39:03.580Z,2.50
2023-04-30T08:41:36.305Z,2.15
2023-04-30T08:44:05.732Z,6.45
2023-04-30T08:46:37.639Z,2.38
2023-04-30T08:49:07.203Z,2.45
2023-04-30T08:51:38.826Z,2.85
2023-04-30T08:54:09.580Z,3.00
2023-04-30T08:56:42.682Z,2.88
2023-04-30T08:59:09.868Z,4.57
2023-04-30T09:01:37.837Z,2.30
2023-04-30T09:04:06.237Z,2.58
2023-04-30T09:06:33.465Z,3.00
2023-04-30T09:09:11.683Z,3.60
2023-04-30T09:11:39.030Z,2.30
2023-04-30T09:14:06.403Z,2.45
2023-04-30T09:16:51.190Z,2.30
2023-04-30T09:19:31.116Z,2.25
2023-04-30T09:21:58.545Z,2.78
2023-04-30T09:24:26.169Z,3.15
2023-04-30T09:26:54.517Z,2.92
2023-04-30T09:29:21.754Z,3.08
2023-04-30T09:31:48.919Z,2.30
2023-04-30T09:34:16.391Z,3.47
2023-04-30T09:36:56.956Z,2.60
2023-04-30T09:39:24.527Z,1.90
2023-04-30T09:41:59.275Z,2.03
2023-04-30T09:44:34.465Z,2.03
2023-04-30T09:47:14.869Z,2.53
2023-04-30T09:49:55.502Z,2.08
2023-04-30T09:52:25.262Z,2.78
2023-04-30T09:54:53.949Z,2.03
2023-04-30T09:57:25.783Z,4.35
2023-04-30T09:59:55.330Z,3.40
2023-04-30T10:02:24.294Z,2.88
2023-04-30T10:05:00.211Z,4.10
2023-04-30T10:07:39.869Z,2.00
2023-04-30T10:10:12.377Z,4.13
2023-04-30T10:12:48.180Z,2.67
2023-04-30T10:15:28.394Z,1.88
2023-04-30T10:18:04.552Z,3.53
2023-04-30T10:20:40.150Z,1.80
2023-04-30T10:23:18.958Z,1.90
2023-04-30T10:25:48.153Z,2.67
2023-04-30T10:28:25.557Z,2.67
2023-04-30T10:31:36.569Z,3.33
2023-04-30T10:38:31.705Z,1.90
2023-04-30T10:41:02.805Z,1.77
2023-04-30T10:43:35.420Z,2.33
2023-04-30T10:46:03.491Z,2.10
2023-04-30T10:48:35.568Z,2.22
2023-04-30T10:51:03.030Z,2.13
2023-04-30T10:53:36.681Z,1.98
2023-04-30T10:56:09.348Z,1.73
2023-04-30T10:58:41.114Z,2.40
2023-04-30T11:01:20.762Z,7.27
2023-04-30T11:04:07.518Z,4.03
2023-04-30T11:06:53.698Z,2.67
2023-04-30T11:09:29.389Z,2.40
2023-04-30T11:12:03.834Z,2.55
2023-04-30T11:14:34.029Z,2.33
2023-04-30T11:17:03.953Z,7.82
2023-04-30T11:19:34.691Z,3.83
2023-04-30T11:22:04.861Z,2.10
2023-04-30T11:24:51.423Z,2.25
2023-04-30T11:27:24.423Z,3.85
2023-04-30T11:29:53.364Z,2.25
2023-04-30T11:32:23.536Z,2.67
2023-04-30T11:34:51.896Z,2.85
2023-04-30T11:37:30.645Z,2.83
2023-04-30T11:40:00.705Z,3.53
2023-04-30T11:42:29.660Z,2.72
2023-04-30T11:45:09.347Z,2.47
2023-04-30T11:47:52.143Z,1.70
2023-04-30T11:50:27.440Z,2.75
2023-04-30T11:52:56.161Z,4.25
2023-04-30T11:55:25.976Z,1.60
2023-04-30T11:58:47.781Z,1.80
2023-04-30T12:01:43.662Z,3.92
2023-04-30T12:04:19.790Z,1.92
2023-04-30T12:06:51.131Z,2.88
2023-04-30T12:09:20.627Z,2.28
2023-04-30T12:11:51.842Z,1.73
2023-04-30T12:14:25.829Z,3.90
2023-04-30T12:16:55.065Z,2.40
2023-04-30T12:19:25.552Z,1.90
2023-04-30T12:21:55.529Z,2.42
2023-04-30T12:24:23.802Z,2.20
2023-04-30T12:26:53.994Z,3.15
2023-04-30T12:29:23.407Z,3.08
2023-04-30T12:31:53.605Z,2.25
2023-04-30T12:34:20.795Z,2.25
2023-04-30T12:36:47.928Z,2.97
2023-04-30T12:39:16.425Z,2.33
2023-04-30T12:41:49.299Z,3.15
2023-04-30T12:44:23.791Z,2.75
2023-04-30T12:46:56.296Z,2.60
2023-04-30T12:49:28.300Z,2.50
2023-04-30T12:52:04.118Z,2.50
2023-04-30T12:54:33.125Z,4.00
2023-04-30T12:57:11.214Z,2.60
2023-04-30T12:59:40.883Z,2.40
2023-04-30T13:02:13.971Z,2.80
2023-04-30T13:04:42.691Z,2.72
2023-04-30T13:07:11.871Z,2.45
2023-04-30T13:09:38.897Z,2.35
2023-04-30T13:12:06.527Z,2.55
2023-04-30T13:14:34.303Z,2.25
2023-04-30T13:17:05.048Z,2.40
2023-04-30T13:19:32.497Z,2.75
2023-04-30T13:22:00.460Z,2.53
2023-04-30T13:24:27.937Z,2.47
2023-04-30T13:26:54.989Z,2.92
2023-04-30T13:29:21.942Z,2.10
2023-04-30T13:31:49.269Z,3.60
2023-04-30T13:34:16.276Z,2.35
2023-04-30T13:36:43.392Z,4.60
2023-04-30T13:39:11.795Z,2.55
2023-04-30T13:41:38.931Z,3.33
2023-04-30T13:44:05.906Z,3.40
2023-04-30T13:46:32.947Z,2.58
2023-04-30T13:48:59.944Z,2.75
2023-04-30T13:51:27.986Z,2.63
2023-04-30T13:53:55.069Z,2.72
2023-04-30T13:56:22.293Z,2.28
2023-04-30T13:58:49.405Z,2.70
2023-04-30T14:01:16.754Z,2.38
2023-04-30T14:03:47.851Z,2.80
2023-04-30T14:06:15.062Z,4.38
2023-04-30T14:08:42.090Z,2.55
2023-04-30T14:11:09.175Z,2.95
2023-04-30T14:13:40.848Z,4.20
2023-04-30T14:16:08.131Z,2.37
2023-04-30T14:18:35.149Z,2.33
2023-04-30T14:21:02.093Z,2.35
2023-04-30T14:23:32.142Z,2.60
2023-04-30T14:25:59.459Z,2.67
2023-04-30T14:28:26.671Z,2.83
2023-04-30T14:30:53.878Z,3.30
2023-04-30T14:33:20.915Z,2.65
2023-04-30T14:47:32.287Z,4.93
2023-04-30T14:49:59.210Z,4.22
2023-04-30T14:52:26.205Z,3.00
2023-04-30T14:54:53.468Z,3.17
2023-04-30T14:58:45.294Z,2.72
2023-04-30T15:13:04.220Z,2.90
2023-04-30T15:16:22.663Z,2.20
2023-04-30T15:22:51.160Z,2.92
2023-04-30T15:25:18.183Z,5.38
2023-04-30T15:27:45.528Z,3.30
2023-04-30T15:30:12.642Z,3.47
2023-04-30T15:32:43.068Z,5.32
2023-04-30T15:35:10.357Z,3.22
2023-04-30T15:37:37.939Z,3.13
2023-04-30T15:40:05.689Z,2.42
2023-04-30T15:42:33.642Z,2.80
2023-04-30T15:45:04.176Z,2.78
2023-04-30T15:47:33.024Z,3.17
2023-04-30T15:50:03.073Z,2.60
2023-04-30T15:52:31.977Z,2.88
2023-04-30T15:54:59.376Z,3.13
2023-04-30T15:57:26.293Z,2.28
2023-04-30T15:59:55.301Z,3.10
2023-04-30T16:02:22.798Z,2.50
2023-04-30T16:04:50.646Z,3.45
2023-04-30T16:07:21.046Z,3.67
2023-04-30T16:09:49.907Z,3.67
2023-04-30T16:12:17.384Z,2.35
2023-04-30T16:14:47.574Z,4.13
2023-04-30T16:17:31.178Z,2.67
2023-04-30T16:20:01.651Z,3.50
2023-04-30T16:22:29.366Z,3.22
2023-04-30T16:24:56.392Z,2.78
2023-04-30T16:27:24.272Z,3.08
2023-04-30T16:29:52.794Z,4.03
2023-04-30T16:32:24.418Z,2.50
2023-04-30T16:34:52.898Z,2.85
2023-04-30T16:37:19.898Z,3.30
2023-04-30T16:39:57.592Z,4.90
2023-04-30T16:47:02.841Z,3.20
2023-04-30T16:49:31.162Z,4.97
2023-04-30T16:51:58.407Z,2.72
2023-04-30T16:55:10.980Z,2.53
2023-04-30T16:57:42.446Z,3.25
2023-04-30T17:00:23.452Z,2.45
2023-04-30T17:03:16.462Z,2.72
2023-04-30T17:05:49.521Z,2.60
2023-04-30T17:08:30.188Z,4.93
2023-04-30T17:11:22.924Z,3.55
2023-04-30T17:20:48.201Z,2.75
2023-04-30T17:23:19.338Z,5.15
2023-04-30T17:25:56.282Z,2.97
2023-04-30T17:28:24.124Z,3.53
2023-04-30T17:30:51.387Z,4.65
2023-04-30T17:33:18.382Z,3.55
2023-04-30T17:35:45.472Z,3.78
2023-04-30T17:46:03.639Z,3.13
2023-04-30T17:48:34.915Z,2.90
2023-04-30T17:51:52.838Z,3.45
2023-04-30T17:54:28.361Z,4.20
2023-04-30T17:56:59.289Z,3.30
2023-04-30T18:02:19.870Z,3.83
2023-04-30T18:04:57.686Z,3.10
2023-04-30T18:11:53.801Z,5.05
2023-04-30T18:14:34.240Z,3.47
2023-04-30T18:20:26.396Z,2.97
2023-04-30T18:22:53.623Z,3.60
2023-04-30T18:25:21.008Z,3.80
2023-04-30T18:27:51.403Z,4.10
2023-04-30T18:30:18.490Z,4.68
2023-04-30T18:32:52.224Z,4.30
2023-04-30T18:35:31.109Z,3.85
2023-04-30T18:51:17.680Z,6.75
2023-04-30T18:53:45.362Z,3.20
2023-04-30T18:56:12.615Z,4.07
2023-04-30T18:58:39.672Z,7.10
2023-04-30T19:01:08.521Z,5.55
2023-04-30T19:03:35.783Z,4.70
2023-04-30T19:06:03.969Z,4.25
2023-04-30T19:08:31.129Z,3.50
2023-04-30T19:10:58.164Z,5.43
2023-04-30T19:13:25.172Z,3.78
2023-04-30T19:15:53.805Z,9.63
2023-04-30T19:18:21.242Z,4.68
2023-04-30T19:20:57.222Z,3.88
2023-04-30T19:23:24.242Z,3.55
2023-04-30T19:25:51.317Z,6.00
2023-04-30T19:28:18.299Z,6.40
2023-04-30T19:30:45.437Z,5.47
2023-04-30T19:33:12.503Z,4.40
2023-04-30T19:35:40.138Z,4.80
2023-04-30T19:42:20.136Z,3.40
2023-04-30T19:44:51.718Z,3.78
2023-04-30T19:47:18.997Z,3.70
2023-04-30T19:49:51.605Z,4.18
2023-04-30T19:52:19.306Z,5.28
2023-04-30T19:54:50.061Z,4.03
2023-04-30T19:57:33.699Z,4.25
2023-04-30T20:01:06.703Z,4.35
2023-04-30T20:03:48.441Z,3.38
2023-04-30T20:06:31.131Z,5.07
2023-04-30T20:09:14.337Z,3.95
2023-04-30T20:11:55.137Z,4.03
2023-04-30T20:14:31.000Z,4.60
2023-04-30T20:17:02.922Z,5.50
2023-04-30T20:19:31.817Z,5.43
2023-04-30T20:22:00.056Z,6.65
2023-04-30T20:33:13.328Z,6.03
2023-04-30T20:36:23.515Z,7.03
2023-04-30T20:39:07.790Z,3.40
2023-04-30T20:42:03.008Z,3.20
2023-04-30T20:44:40.588Z,4.65
2023-04-30T20:47:11.702Z,4.50
2023-04-30T20:49:43.990Z,4.53
2023-04-30T20:52:19.574Z,7.97
2023-04-30T20:55:33.954Z,6.22
2023-04-30T21:02:44.646Z,5.18
2023-04-30T21:05:45.753Z,5.70
2023-04-30T21:12:39.676Z,5.20
2023-04-30T21:19:07.954Z,3.88
2023-04-30T21:21:36.439Z,3.88
2023-04-30T21:24:05.133Z,4.40
2023-04-30T21:26:57.014Z,4.03
2023-04-30T21:32:25.912Z,3.53
2023-04-30T21:35:00.424Z,4.65
2023-04-30T21:37:29.795Z,5.05
2023-04-30T21:39:57.047Z,4.03
2023-04-30T21:42:24.650Z,4.68
2023-04-30T21:46:17.709Z,5.35
2023-04-30T21:51:56.446Z,5.30
2023-04-30T22:03:24.194Z,5.78
2023-04-30T22:06:13.504Z,12.98
2023-04-30T22:09:34.878Z,9.68
2023-04-30T22:13:14.896Z,13.73
2023-04-30T22:15:48.446Z,11.77
2023-04-30T22:19:47.845Z,6.18
2023-04-30T22:22:17.671Z,8.10
2023-04-30T22:30:12.728Z,3.95
2023-04-30T22:32:43.170Z,7.57
2023-04-30T22:35:22.169Z,5.95
2023-04-30T22:37:50.059Z,4.43
2023-04-30T22:52:50.587Z,9.32
2023-04-30T22:55:27.926Z,4.53
2023-04-30T22:58:39.304Z,4.75
2023-04-30T23:07:23.443Z,4.13
2023-04-30T23:10:16.388Z,4.22
2023-04-30T23:15:39.803Z,4.10
2023-04-30T23:18:14.118Z,5.20
2023-04-30T23:20:40.982Z,7.25
2023-04-30T23:23:07.904Z,6.25
2023-04-30T23:25:40.106Z,4.45
2023-04-30T23:28:09.837Z,5.35
2023-04-30T23:30:40.207Z,3.97
2023-04-30T23:33:10.189Z,6.53
2023-04-30T23:35:37.722Z,5.13
2023-04-30T23:38:05.108Z,6.03
2023-04-30T23:40:32.482Z,6.05
2023-04-30T23:43:07.602Z,7.50
2023-04-30T23:45:44.921Z,5.05
2023-04-30T23:48:32.671Z,4.95
2023-04-30T23:51:05.328Z,7.13
2023-04-30T23:53:35.672Z,4.93
2023-04-30T23:56:57.020Z,6.45
2023-04-30T23:59:26.520Z,4.85
